sensor_id;sensor_type;location;lat;lon;timestamp;pressure;altitude;pressure_sealevel;temperature;humidity
13594;BME280;6449;47.666;9.160;2022-08-21T00:31:17;97145.31;;;17.47;100.00
13594;BME280;6449;47.666;9.160;2022-08-21T00:41:22;97143.22;;;17.33;100.00
13594;BME280;6449;47.666;9.160;2022-08-21T00:51:45;97131.00;;;17.04;100.00
13594;BME280;6449;47.666;9.160;2022-08-21T00:56:41;97126.41;;;17.06;100.00
13594;BME280;6449;47.666;9.160;2022-08-21T01:27:28;97119.69;;;17.55;100.00
13594;BME280;6449;47.666;9.160;2022-08-21T01:32:22;97118.75;;;17.39;100.00
13594;BME280;6449;47.666;9.160;2022-08-21T01:42:45;97108.06;;;17.48;100.00
13594;BME280;6449;47.666;9.160;2022-08-21T01:47:39;97105.19;;;17.42;100.00
13594;BME280;6449;47.666;9.160;2022-08-21T01:52:33;97102.88;;;17.47;100.00
13594;BME280;6449;47.666;9.160;2022-08-21T01:57:27;97089.03;;;17.53;100.00
13594;BME280;6449;47.666;9.160;2022-08-21T02:02:21;97085.25;;;17.55;100.00
13594;BME280;6449;47.666;9.160;2022-08-21T02:07:15;97073.72;;;17.65;100.00
13594;BME280;6449;47.666;9.160;2022-08-21T02:12:09;97063.94;;;17.65;100.00
13594;BME280;6449;47.666;9.160;2022-08-21T02:17:04;97058.63;;;17.65;100.00
13594;BME280;6449;47.666;9.160;2022-08-21T02:22:02;97058.28;;;17.68;100.00
13594;BME280;6449;47.666;9.160;2022-08-21T02:26:56;97059.06;;;17.52;100.00
13594;BME280;6449;47.666;9.160;2022-08-21T02:31:49;97060.63;;;17.63;100.00
13594;BME280;6449;47.666;9.160;2022-08-21T02:36:45;97050.03;;;17.71;100.00
13594;BME280;6449;47.666;9.160;2022-08-21T02:41:52;97045.72;;;17.70;100.00
13594;BME280;6449;47.666;9.160;2022-08-21T02:46:45;97044.81;;;17.79;100.00
13594;BME280;6449;47.666;9.160;2022-08-21T02:51:39;97038.69;;;17.79;100.00
13594;BME280;6449;47.666;9.160;2022-08-21T02:56:33;97037.53;;;17.82;100.00
13594;BME280;6449;47.666;9.160;2022-08-21T03:01:28;97036.88;;;17.79;100.00
13594;BME280;6449;47.666;9.160;2022-08-21T03:06:24;97037.84;;;17.78;100.00
13594;BME280;6449;47.666;9.160;2022-08-21T03:11:18;97038.88;;;17.86;100.00
13594;BME280;6449;47.666;9.160;2022-08-21T03:16:12;97027.94;;;17.89;100.00
13594;BME280;6449;47.666;9.160;2022-08-21T03:21:08;97033.06;;;17.82;100.00
13594;BME280;6449;47.666;9.160;2022-08-21T03:26:03;97038.06;;;17.85;100.00
13594;BME280;6449;47.666;9.160;2022-08-21T03:30:58;97033.59;;;17.86;100.00
13594;BME280;6449;47.666;9.160;2022-08-21T03:36:04;97031.06;;;17.84;100.00
13594;BME280;6449;47.666;9.160;2022-08-21T03:40:59;97029.75;;;17.80;100.00
13594;BME280;6449;47.666;9.160;2022-08-21T03:45:53;97028.28;;;17.86;100.00
13594;BME280;6449;47.666;9.160;2022-08-21T03:50:47;97023.28;;;17.83;100.00
13594;BME280;6449;47.666;9.160;2022-08-21T03:55:42;97029.47;;;17.91;100.00
13594;BME280;6449;47.666;9.160;2022-08-21T04:00:37;97033.94;;;17.91;100.00
13594;BME280;6449;47.666;9.160;2022-08-21T04:05:30;97042.53;;;17.85;100.00
13594;BME280;6449;47.666;9.160;2022-08-21T04:10:26;97045.84;;;17.87;100.00
13594;BME280;6449;47.666;9.160;2022-08-21T04:15:22;97048.34;;;17.88;100.00
13594;BME280;6449;47.666;9.160;2022-08-21T04:20:18;97055.94;;;17.83;100.00
13594;BME280;6449;47.666;9.160;2022-08-21T04:25:15;97053.09;;;17.76;100.00
13594;BME280;6449;47.666;9.160;2022-08-21T04:30:10;97062.41;;;17.80;100.00
13594;BME280;6449;47.666;9.160;2022-08-21T04:35:08;97055.44;;;17.79;100.00
13594;BME280;6449;47.666;9.160;2022-08-21T04:40:05;97054.81;;;17.86;100.00
13594;BME280;6449;47.666;9.160;2022-08-21T04:45:02;97052.50;;;17.91;100.00
13594;BME280;6449;47.666;9.160;2022-08-21T04:49:56;97056.16;;;17.90;100.00
13594;BME280;6449;47.666;9.160;2022-08-21T04:54:51;97058.31;;;17.94;100.00
13594;BME280;6449;47.666;9.160;2022-08-21T04:59:50;97056.34;;;17.96;100.00
13594;BME280;6449;47.666;9.160;2022-08-21T05:04:49;97058.19;;;18.04;100.00
13594;BME280;6449;47.666;9.160;2022-08-21T05:09:43;97076.22;;;17.92;100.00
13594;BME280;6449;47.666;9.160;2022-08-21T05:14:37;97070.25;;;17.90;100.00
13594;BME280;6449;47.666;9.160;2022-08-21T05:19:32;97077.50;;;17.88;100.00
13594;BME280;6449;47.666;9.160;2022-08-21T05:24:25;97072.25;;;17.96;100.00
13594;BME280;6449;47.666;9.160;2022-08-21T05:29:19;97078.81;;;17.84;100.00
13594;BME280;6449;47.666;9.160;2022-08-21T05:34:15;97076.50;;;17.89;100.00
13594;BME280;6449;47.666;9.160;2022-08-21T05:39:12;97062.47;;;17.97;100.00
13594;BME280;6449;47.666;9.160;2022-08-21T05:44:06;97057.38;;;18.03;100.00
13594;BME280;6449;47.666;9.160;2022-08-21T05:49:01;97070.47;;;18.05;100.00
13594;BME280;6449;47.666;9.160;2022-08-21T05:53:55;97074.28;;;18.02;100.00
13594;BME280;6449;47.666;9.160;2022-08-21T05:58:49;97081.25;;;18.03;100.00
13594;BME280;6449;47.666;9.160;2022-08-21T06:03:43;97086.53;;;18.03;100.00
13594;BME280;6449;47.666;9.160;2022-08-21T06:08:37;97087.72;;;18.09;100.00
13594;BME280;6449;47.666;9.160;2022-08-21T06:13:30;97078.34;;;18.23;100.00
13594;BME280;6449;47.666;9.160;2022-08-21T06:18:25;97091.16;;;18.27;100.00
13594;BME280;6449;47.666;9.160;2022-08-21T06:28:24;97098.34;;;18.43;100.00
13594;BME280;6449;47.666;9.160;2022-08-21T06:43:40;97109.75;;;18.78;100.00
13594;BME280;6449;47.666;9.160;2022-08-21T06:53:44;97115.44;;;18.99;100.00
13594;BME280;6449;47.666;9.160;2022-08-21T06:58:39;97136.34;;;18.94;100.00
13594;BME280;6449;47.666;9.160;2022-08-21T07:03:35;97128.06;;;18.97;100.00
13594;BME280;6449;47.666;9.160;2022-08-21T07:08:29;97126.25;;;19.06;100.00
13594;BME280;6449;47.666;9.160;2022-08-21T07:13:23;97130.91;;;19.12;100.00
13594;BME280;6449;47.666;9.160;2022-08-21T07:49:25;97129.59;;;19.81;100.00
13594;BME280;6449;47.666;9.160;2022-08-21T07:59:29;97137.78;;;19.63;100.00
13594;BME280;6449;47.666;9.160;2022-08-21T08:14:45;97119.00;;;20.29;100.00
13594;BME280;6449;47.666;9.160;2022-08-21T09:52:43;97063.81;;;22.72;100.00
13594;BME280;6449;47.666;9.160;2022-08-21T10:37:46;97018.97;;;23.88;78.96
13594;BME280;6449;47.666;9.160;2022-08-21T10:47:53;97021.94;;;23.99;81.27
13594;BME280;6449;47.666;9.160;2022-08-21T11:08:15;96987.50;;;23.96;64.14
13594;BME280;6449;47.666;9.160;2022-08-21T11:13:19;96974.09;;;23.96;63.82
13594;BME280;6449;47.666;9.160;2022-08-21T11:18:26;96996.28;;;24.18;81.16
13594;BME280;6449;47.666;9.160;2022-08-21T11:23:28;96974.78;;;24.12;73.54
13594;BME280;6449;47.666;9.160;2022-08-21T11:28:31;96975.84;;;24.17;72.65
13594;BME280;6449;47.666;9.160;2022-08-21T11:33:45;96963.91;;;24.20;66.31
13594;BME280;6449;47.666;9.160;2022-08-21T11:38:46;96965.22;;;24.37;71.81
13594;BME280;6449;47.666;9.160;2022-08-21T11:43:48;96951.78;;;24.30;70.88
13594;BME280;6449;47.666;9.160;2022-08-21T11:48:55;96960.63;;;24.24;72.20
13594;BME280;6449;47.666;9.160;2022-08-21T11:54:03;96946.56;;;24.16;70.71
13594;BME280;6449;47.666;9.160;2022-08-21T11:59:04;96928.88;;;24.21;64.00
13594;BME280;6449;47.666;9.160;2022-08-21T12:04:06;96930.72;;;24.21;65.20
13594;BME280;6449;47.666;9.160;2022-08-21T12:09:06;96943.31;;;24.34;77.80
13594;BME280;6449;47.666;9.160;2022-08-21T12:14:12;96924.97;;;24.24;73.15
13594;BME280;6449;47.666;9.160;2022-08-21T12:19:09;96909.91;;;24.23;66.78
13594;BME280;6449;47.666;9.160;2022-08-21T12:24:18;96911.34;;;24.19;66.24
13594;BME280;6449;47.666;9.160;2022-08-21T12:29:21;96911.75;;;24.22;65.59
13594;BME280;6449;47.666;9.160;2022-08-21T12:34:17;96903.50;;;24.17;60.53
13594;BME280;6449;47.666;9.160;2022-08-21T12:39:18;96916.28;;;24.09;67.35
13594;BME280;6449;47.666;9.160;2022-08-21T12:44:21;96896.88;;;24.00;66.29
13594;BME280;6449;47.666;9.160;2022-08-21T12:49:26;96884.31;;;24.07;59.30
13594;BME280;6449;47.666;9.160;2022-08-21T12:54:29;96889.50;;;24.15;62.47
13594;BME280;6449;47.666;9.160;2022-08-21T12:59:22;96888.44;;;24.03;63.41
13594;BME280;6449;47.666;9.160;2022-08-21T13:04:20;96894.25;;;24.26;67.03
13594;BME280;6449;47.666;9.160;2022-08-21T13:09:18;96891.78;;;24.18;65.18
13594;BME280;6449;47.666;9.160;2022-08-21T13:14:24;96888.69;;;24.21;61.90
13594;BME280;6449;47.666;9.160;2022-08-21T13:19:18;96898.97;;;24.11;71.94
13594;BME280;6449;47.666;9.160;2022-08-21T13:24:18;96889.44;;;23.95;65.55
13594;BME280;6449;47.666;9.160;2022-08-21T13:29:34;96891.53;;;24.07;71.47
13594;BME280;6449;47.666;9.160;2022-08-21T13:34:35;96892.09;;;23.95;69.26
13594;BME280;6449;47.666;9.160;2022-08-21T13:39:29;96878.50;;;23.97;66.76
13594;BME280;6449;47.666;9.160;2022-08-21T13:44:34;96871.72;;;24.01;68.14
13594;BME280;6449;47.666;9.160;2022-08-21T13:49:33;96877.44;;;23.91;66.28
13594;BME280;6449;47.666;9.160;2022-08-21T13:54:34;96871.94;;;23.99;64.89
13594;BME280;6449;47.666;9.160;2022-08-21T13:59:35;96883.25;;;24.01;70.93
13594;BME280;6449;47.666;9.160;2022-08-21T14:04:35;96878.50;;;23.97;78.73
13594;BME280;6449;47.666;9.160;2022-08-21T14:09:39;96877.91;;;24.01;70.39
13594;BME280;6449;47.666;9.160;2022-08-21T14:14:38;96875.00;;;23.90;71.79
13594;BME280;6449;47.666;9.160;2022-08-21T14:19:38;96865.28;;;23.82;65.87
13594;BME280;6449;47.666;9.160;2022-08-21T14:24:39;96862.84;;;23.94;69.11
13594;BME280;6449;47.666;9.160;2022-08-21T14:29:38;96872.31;;;23.96;71.63
13594;BME280;6449;47.666;9.160;2022-08-21T14:34:34;96865.91;;;23.91;68.21
13594;BME280;6449;47.666;9.160;2022-08-21T14:39:28;96870.88;;;23.94;72.65
13594;BME280;6449;47.666;9.160;2022-08-21T14:44:21;96856.47;;;23.95;73.54
13594;BME280;6449;47.666;9.160;2022-08-21T14:49:16;96845.53;;;23.96;70.22
13594;BME280;6449;47.666;9.160;2022-08-21T14:54:10;96844.13;;;24.00;69.26
13594;BME280;6449;47.666;9.160;2022-08-21T14:59:07;96851.53;;;23.98;72.02
13594;BME280;6449;47.666;9.160;2022-08-21T15:04:01;96843.28;;;23.93;69.29
13594;BME280;6449;47.666;9.160;2022-08-21T15:08:55;96832.13;;;23.83;66.48
13594;BME280;6449;47.666;9.160;2022-08-21T15:13:55;96831.31;;;23.83;68.06
13594;BME280;6449;47.666;9.160;2022-08-21T15:18:49;96831.91;;;23.78;63.51
13594;BME280;6449;47.666;9.160;2022-08-21T15:23:43;96836.22;;;23.72;68.86
13594;BME280;6449;47.666;9.160;2022-08-21T15:28:37;96826.53;;;23.71;66.76
13594;BME280;6449;47.666;9.160;2022-08-21T15:33:31;96831.66;;;23.66;71.46
13594;BME280;6449;47.666;9.160;2022-08-21T15:38:25;96828.72;;;23.61;71.84
13594;BME280;6449;47.666;9.160;2022-08-21T15:43:25;96815.72;;;23.58;70.08
13594;BME280;6449;47.666;9.160;2022-08-21T15:48:22;96811.84;;;23.61;67.00
13594;BME280;6449;47.666;9.160;2022-08-21T15:53:16;96807.53;;;23.60;67.59
13594;BME280;6449;47.666;9.160;2022-08-21T15:58:13;96792.06;;;23.62;60.25
13594;BME280;6449;47.666;9.160;2022-08-21T16:03:09;96792.47;;;23.59;59.36
13594;BME280;6449;47.666;9.160;2022-08-21T16:08:07;96807.31;;;23.55;65.76
13594;BME280;6449;47.666;9.160;2022-08-21T16:13:04;96803.38;;;23.50;66.68
13594;BME280;6449;47.666;9.160;2022-08-21T16:17:59;96805.22;;;23.50;70.38
13594;BME280;6449;47.666;9.160;2022-08-21T16:22:54;96798.59;;;23.46;68.63
13594;BME280;6449;47.666;9.160;2022-08-21T16:27:55;96794.13;;;23.60;64.34
13594;BME280;6449;47.666;9.160;2022-08-21T16:32:51;96785.09;;;23.61;64.20
13594;BME280;6449;47.666;9.160;2022-08-21T16:37:45;96774.31;;;23.54;63.75
13594;BME280;6449;47.666;9.160;2022-08-21T16:42:44;96774.75;;;23.58;60.84
13594;BME280;6449;47.666;9.160;2022-08-21T16:47:39;96773.72;;;23.59;62.89
13594;BME280;6449;47.666;9.160;2022-08-21T16:52:34;96785.03;;;23.54;63.24
13594;BME280;6449;47.666;9.160;2022-08-21T16:57:28;96787.31;;;23.50;64.96
13594;BME280;6449;47.666;9.160;2022-08-21T17:02:31;96779.84;;;23.39;72.23
13594;BME280;6449;47.666;9.160;2022-08-21T17:07:30;96773.59;;;23.19;72.44
13594;BME280;6449;47.666;9.160;2022-08-21T17:12:28;96779.47;;;23.01;71.77
13594;BME280;6449;47.666;9.160;2022-08-21T17:17:21;96779.00;;;22.91;72.06
13594;BME280;6449;47.666;9.160;2022-08-21T17:22:14;96788.59;;;22.85;75.14
13594;BME280;6449;47.666;9.160;2022-08-21T17:58:14;96782.91;;;21.96;84.81
